CYQB

Quebec

Airport
ICAO code
CYQB
Summary
ICAO Region
NAM
ICAO Territory
Location

Quebec City, Quebec,

Coordinates
46° 47' 28" N , 71° 23' 36" W
KCC
Metar
Observation
CYQB 071905Z 23010G18KT 200V290 5SM R06/4000VP6000FT/U -SHRA BR FEW015 BKN035TCU OVC080 14/13 A2975 RMK CF2TCU5ACC1 PRESRR SLP078 DENSITY ALT 400FT
Station
Quebec, Que
Date/Time
2022-10-07 19:05:00
Wind direction
230°
Wind speed
10 kts
Lowest cloud amount
few clouds
Temperature
6°C
Dew point
40°C
Humidity
786%
Weather condition
n/a

Description

Québec City Jean Lesage International Airport, also known as Jean Lesage International Airport is located 6 nm west southwest of Quebec City, Quebec, Canada.

Climatology

Humid Continental climate (Köppen climate classification Dfb) - Variable weather patterns and a large seasonal temperature variance. Summers are often warm and humid with frequent thunderstorms and winters can be very cold with frequent snowfall and persistent snow cover.

Runways

Designator Length Width Surface Rops
12/30 1737 46 ASP Yes/Yes
6/24 2743 46 ASP Yes/Yes

Airport map

Aerial View

SKYbrary Partners:

Safety knowledge contributed by: